METAR Data
IDs: Format: Raw Decoded Include TAF

Data at: 0012 UTC 26 Oct 2021

KADS 252347Z 10006KT 13SM SKC 27/10 A2992
KADS 252247Z 08007KT 13SM SKC 29/10 A2991
KADS 252147Z 10007KT 13SM SKC 30/11 A2992
KADS 252047Z 10005KT 13SM SKC 30/11 A2992
KADS 251947Z 14007KT 13SM SKC 29/09 A2994
KADS 251855Z 13005KT 13SM SKC 29/08 A2996
KADS 251747Z 07007KT 13SM SKC 28/08 A2998
KADS 251647Z 10007KT 13SM SKC 26/09 A3000
KADS 251557Z 08008KT 13SM SKC 24/09 A3000
KADS 251447Z 09009KT 13SM SKC 22/11 A3001
KADS 251351Z 09004KT 13SM SKC 19/13 A3000
KADS 251247Z 09005KT 13SM SKC 18/13 A2997
KADS 251147Z 08006KT 13SM SKC 18/14 A2995
KADS 251047Z 08007KT 13SM SKC 19/14 A2995
KADS 251035Z AUTO 08005KT 10SM CLR 18/14 A2995 RMK AO2 T01800135
KADS 251015Z AUTO 08005KT 10SM CLR 18/14 A2995 RMK AO2 T01820135
KADS 250955Z AUTO 08004KT 10SM CLR 18/14 A2995 RMK AO2 T01820135
KADS 250935Z AUTO 08005KT 10SM CLR 18/14 A2994 RMK AO2 T01830136
KADS 250915Z AUTO 08005KT 10SM CLR 18/14 A2994 RMK AO2 T01840136
KADS 250855Z AUTO 06006KT 10SM CLR 19/14 A2994 RMK AO2 T01850135
KADS 250835Z AUTO 07006KT 10SM CLR 18/14 A2994 RMK AO2 T01840136
KADS 250815Z AUTO 07005KT 10SM CLR 19/14 A2994 RMK AO2 T01870137
KADS 250755Z AUTO 06004KT 10SM CLR 19/14 A2994 RMK AO2 T01890138
KADS 250735Z AUTO 05006KT 10SM CLR 19/14 A2993 RMK AO2 T01900138
KADS 250715Z AUTO 05006KT 10SM CLR 19/14 A2993 RMK AO2 T01900140
KADS 250655Z AUTO 05005KT 10SM CLR 20/14 A2993 RMK AO2 T01950141
KADS 250635Z AUTO 03005KT 10SM CLR 20/14 A2992 RMK AO2 T01970143
KADS 250615Z AUTO 04004KT 10SM CLR 20/15 A2993 RMK AO2 T01970150
KADS 250555Z AUTO 04004KT 10SM CLR 21/15 A2993 RMK AO2 T02050150 10270 20205 402900198
KADS 250535Z AUTO 03007KT 10SM CLR 21/16 A2993 RMK AO2 T02060156
KADS 250515Z AUTO 01008KT 10SM CLR 21/17 A2993 RMK AO2 T02090174
KADS 250455Z AUTO 35007KT 10SM CLR 21/18 A2992 RMK AO2 T02120181
KADS 250435Z AUTO 32005KT 10SM CLR 22/19 A2991 RMK AO2 T02230187
KADS 250415Z AUTO 29003KT 10SM CLR 23/20 A2991 RMK AO2 T02250196
KADS 250355Z AUTO 00000KT 10SM CLR 23/21 A2990 RMK AO2 T02310208
KADS 250335Z AUTO 00000KT 10SM CLR 24/21 A2989 RMK AO2 T02350206
KADS 250315Z AUTO 20003KT 10SM CLR 23/21 A2988 RMK AO2 T02270213
KADS 250250Z 19003KT 13SM SCT034 SCT043 BKN060 24/21 A2987 RMK LAST WX
KADS 250204Z 25003KT 13SM SCT009 SCT023 BKN050 23/20 A2985
KADS 250147Z 17010G22KT 10SM +TSRA SCT009 BKN031 23/20 A2984 RMK LTG DSNT S
KADS 250138Z 28012G18KT 2SM +TSRA BKN011 25/21 A2986 RMK LTG OHD CG FRQ
KADS 250135Z 28012G18KT 2SM +TSRA SCT034 SCT047 25/21 A2986 RMK LTG OHD CG FRQ
KADS 250127Z 3005G15KT 13SM -RA SCT060 BKN075 BKN095 26/20 A2983 RMK LTG DSNT W
KADS 250047Z 17007G15KT 13SM SCT080 SCT120 27/19 A2978 RMK LTG DSTNT NW
KADS 242353Z 18010G16KT 13SM SCT080 SCT120 28/19 A2977 RMK LTG DSTNT NW
KADS 242247Z 19010G16KT 13SM SKC 29/19 A2977
KADS 242153Z 18012G17KT 13SM SCT042 BKN049 29/18 A2976
KADS 242047Z 18011G22KT 13SM SCT040 BKN048 29/18 A2976
KADS 241948Z 19011G22KT 13SM SCT034 SCT041 29/19 A2977
KADS 241856Z 19012G20KT 10SM BKN028 OVC037 28/19 A2979
KADS 241647Z 17016G21KT 10SM BKN014 25/19 A2984
KADS 241610Z 18013G20KT 10SM OVC009 24/19 A2985
KADS 241554Z 16014G20KT 10SM OVC010 25/19 A2985
KADS 241447Z 15013G18KT 10SM OVC007 22/19 A2986
KADS 241348Z 17008KT 10SM OVC009 21/19 A2987
KADS 241301Z 19007G14KT 10SM OVC006 21/19 A2985
KADS 241247Z 19008G11KT 10SM OVC010 21/19 A2985